Time;durP1;ratioP1;P1;durP2;ratioP2;P2;SDS_P1;SDS_P2;PMS_P1;PMS_P2;Temp;Humidity;BMP_temperature;BMP_pressure;BME280_temperature;BME280_humidity;BME280_pressure;Samples;Min_cycle;Max_cycle;Signal;HPM_P1;HPM_P2
2024/02/24 00:01:43;;;;;;;3.78;2.10;;;;;;;;;;5006730;28;20080;-82
2024/02/24 00:04:09;;;;;;;5.70;2.25;;;;;;;;;;5021873;28;20077;-82
2024/02/24 00:06:36;;;;;;;4.75;1.95;;;;;;;;;;5036533;28;20409;-81
2024/02/24 00:09:03;;;;;;;4.70;2.47;;;;;;;;;;5000459;28;20141;-81
2024/02/24 00:11:30;;;;;;;6.35;2.28;;;;;;;;;;5018053;28;20301;-81
2024/02/24 00:13:57;;;;;;;4.28;2.33;;;;;;;;;;5002204;28;20052;-80
2024/02/24 00:16:24;;;;;;;4.10;1.90;;;;;;;;;;5018330;28;20042;-80
2024/02/24 00:18:55;;;;;;;6.38;2.60;;;;;;;;;;5002071;28;20057;-80
2024/02/24 00:21:22;;;;;;;4.85;2.25;;;;;;;;;;5002663;28;20535;-80
2024/02/24 00:23:48;;;;;;;4.13;1.75;;;;;;;;;;5018305;28;20049;-81
2024/02/24 00:26:15;;;;;;;3.15;1.98;;;;;;;;;;5002556;28;20053;-80
2024/02/24 00:28:42;;;;;;;3.55;1.70;;;;;;;;;;4998364;28;20511;-80
2024/02/24 00:31:09;;;;;;;3.78;2.05;;;;;;;;;;5011650;28;20066;-79
2024/02/24 00:33:35;;;;;;;4.35;2.20;;;;;;;;;;5014154;28;20057;-79
2024/02/24 00:36:03;;;;;;;5.93;1.95;;;;;;;;;;4997700;28;20053;-80
2024/02/24 00:38:30;;;;;;;3.50;1.95;;;;;;;;;;5018395;28;20057;-80
2024/02/24 00:40:57;;;;;;;3.33;1.83;;;;;;;;;;5002910;28;20053;-81
2024/02/24 00:43:23;;;;;;;3.28;2.00;;;;;;;;;;5015233;28;20076;-80
2024/02/24 00:45:50;;;;;;;2.78;1.75;;;;;;;;;;5018270;28;20069;-80
2024/02/24 00:48:17;;;;;;;2.15;1.45;;;;;;;;;;5001497;28;20537;-81
2024/02/24 00:50:43;;;;;;;4.07;2.17;;;;;;;;;;5017013;28;20050;-81
2024/02/24 00:53:10;;;;;;;3.60;1.60;;;;;;;;;;5032947;28;20204;-81
2024/02/24 00:55:37;;;;;;;5.10;1.50;;;;;;;;;;5016271;28;20049;-81
2024/02/24 00:58:03;;;;;;;4.43;1.70;;;;;;;;;;5016222;28;20049;-81
2024/02/24 01:00:30;;;;;;;4.50;2.13;;;;;;;;;;5000242;28;20133;-81
2024/02/24 01:02:56;;;;;;;2.60;1.88;;;;;;;;;;4999705;28;20042;-82
2024/02/24 01:05:23;;;;;;;5.57;2.20;;;;;;;;;;5015876;28;20049;-81
2024/02/24 01:07:50;;;;;;;5.18;2.20;;;;;;;;;;5016899;28;20049;-81
2024/02/24 01:10:17;;;;;;;10.45;2.47;;;;;;;;;;5015255;28;20080;-82
2024/02/24 01:12:43;;;;;;;4.50;1.80;;;;;;;;;;4999637;28;20080;-81
2024/02/24 01:15:10;;;;;;;3.28;1.90;;;;;;;;;;5014954;28;20053;-81
2024/02/24 01:17:37;;;;;;;4.10;2.10;;;;;;;;;;5015628;28;20112;-81
2024/02/24 01:20:04;;;;;;;2.92;1.48;;;;;;;;;;5015479;28;20050;-82
2024/02/24 01:22:31;;;;;;;1.77;1.58;;;;;;;;;;5002393;28;20058;-81
2024/02/24 01:24:57;;;;;;;4.50;1.48;;;;;;;;;;5030139;28;20112;-82
2024/02/24 01:27:24;;;;;;;5.35;1.95;;;;;;;;;;5029966;28;20080;-82
2024/02/24 01:29:51;;;;;;;3.95;1.90;;;;;;;;;;5026565;28;20054;-82
2024/02/24 01:32:19;;;;;;;1.77;1.20;;;;;;;;;;5018105;28;20054;-82
2024/02/24 01:34:46;;;;;;;4.80;1.77;;;;;;;;;;5017786;28;20520;-81
2024/02/24 01:37:12;;;;;;;3.25;1.85;;;;;;;;;;5021912;28;20054;-81
2024/02/24 01:39:39;;;;;;;6.35;2.13;;;;;;;;;;5001388;28;20544;-81
2024/02/24 01:42:05;;;;;;;4.78;1.80;;;;;;;;;;4993503;28;20153;-81
2024/02/24 01:44:32;;;;;;;3.55;2.05;;;;;;;;;;5016764;28;20100;-81
2024/02/24 01:46:59;;;;;;;4.53;2.22;;;;;;;;;;5017008;28;20510;-80
2024/02/24 01:49:25;;;;;;;3.22;2.00;;;;;;;;;;4998810;28;20085;-79
2024/02/24 01:51:52;;;;;;;5.50;2.08;;;;;;;;;;5015526;28;20103;-79
2024/02/24 01:54:19;;;;;;;4.55;1.50;;;;;;;;;;4996127;28;20062;-80
2024/02/24 01:56:45;;;;;;;5.63;1.40;;;;;;;;;;5013639;28;20123;-82
2024/02/24 01:59:12;;;;;;;2.47;1.20;;;;;;;;;;5013047;28;20128;-81
2024/02/24 02:01:39;;;;;;;2.53;1.73;;;;;;;;;;4996841;28;20500;-80
2024/02/24 02:04:07;;;;;;;3.33;1.65;;;;;;;;;;5001501;28;20496;-80
2024/02/24 02:06:33;;;;;;;3.67;1.20;;;;;;;;;;5006841;28;20122;-80
2024/02/24 02:09:00;;;;;;;4.13;1.35;;;;;;;;;;5013560;28;20622;-80
2024/02/24 02:11:27;;;;;;;4.47;1.40;;;;;;;;;;5013234;28;20499;-80
2024/02/24 02:13:53;;;;;;;3.92;1.10;;;;;;;;;;5012277;28;20053;-80
2024/02/24 02:16:20;;;;;;;1.83;1.35;;;;;;;;;;5003409;28;20050;-80
2024/02/24 02:18:47;;;;;;;3.67;1.50;;;;;;;;;;5011925;28;20053;-81
2024/02/24 02:21:14;;;;;;;3.75;1.65;;;;;;;;;;5012595;28;20137;-81
2024/02/24 02:23:40;;;;;;;2.65;1.20;;;;;;;;;;5012160;28;20045;-82
2024/02/24 02:26:07;;;;;;;3.67;1.38;;;;;;;;;;4995958;28;20057;-82
2024/02/24 02:28:34;;;;;;;6.25;1.98;;;;;;;;;;4995929;28;20092;-83
2024/02/24 02:31:00;;;;;;;4.75;1.75;;;;;;;;;;4995845;28;20108;-82
2024/02/24 02:33:27;;;;;;;4.40;1.45;;;;;;;;;;5010634;28;20129;-82
2024/02/24 02:35:54;;;;;;;4.45;1.35;;;;;;;;;;5027042;28;20431;-83
2024/02/24 02:38:21;;;;;;;4.68;1.48;;;;;;;;;;4994549;28;20524;-83
2024/02/24 02:40:47;;;;;;;3.10;1.38;;;;;;;;;;4996178;28;20051;-83
2024/02/24 02:43:14;;;;;;;2.58;1.30;;;;;;;;;;4987390;28;20081;-83
2024/02/24 02:45:40;;;;;;;5.03;1.40;;;;;;;;;;4998348;28;20077;-83
2024/02/24 02:48:07;;;;;;;1.88;1.08;;;;;;;;;;5009774;28;20120;-83
2024/02/24 02:50:34;;;;;;;2.05;1.33;;;;;;;;;;4992986;28;20050;-83
2024/02/24 02:53:01;;;;;;;4.13;1.42;;;;;;;;;;5013063;28;20089;-83
2024/02/24 02:55:28;;;;;;;2.92;1.30;;;;;;;;;;5016062;28;20065;-82
2024/02/24 02:57:54;;;;;;;2.10;1.35;;;;;;;;;;5017304;28;20531;-81
2024/02/24 03:00:21;;;;;;;3.00;1.20;;;;;;;;;;5000101;28;20504;-83
2024/02/24 03:02:48;;;;;;;2.63;1.48;;;;;;;;;;4999534;28;20492;-83
2024/02/24 03:05:15;;;;;;;3.25;0.98;;;;;;;;;;5000373;28;20049;-82
2024/02/24 03:07:41;;;;;;;1.52;1.02;;;;;;;;;;5017055;28;20134;-82
2024/02/24 03:10:08;;;;;;;3.38;1.30;;;;;;;;;;5015790;28;20057;-82
2024/02/24 03:12:35;;;;;;;5.55;1.55;;;;;;;;;;5015743;28;20426;-82
2024/02/24 03:15:02;;;;;;;2.17;0.90;;;;;;;;;;5000487;28;20054;-80
2024/02/24 03:17:29;;;;;;;1.42;1.10;;;;;;;;;;4998420;28;20100;-78
2024/02/24 03:19:56;;;;;;;1.42;0.98;;;;;;;;;;4999545;28;20141;-82
2024/02/24 03:22:22;;;;;;;2.35;1.23;;;;;;;;;;5025421;28;20050;-84
2024/02/24 03:24:49;;;;;;;2.03;0.95;;;;;;;;;;5005645;28;20081;-80
2024/02/24 03:27:16;;;;;;;1.77;0.90;;;;;;;;;;5004012;28;20073;-80
2024/02/24 03:29:43;;;;;;;1.70;0.93;;;;;;;;;;5005386;28;20060;-80
2024/02/24 03:32:10;;;;;;;1.92;0.80;;;;;;;;;;5021730;28;20054;-79
2024/02/24 03:34:37;;;;;;;2.58;0.80;;;;;;;;;;5008699;28;20054;-79
2024/02/24 03:37:04;;;;;;;3.60;0.82;;;;;;;;;;5007976;28;20046;-80
2024/02/24 03:39:31;;;;;;;1.85;0.82;;;;;;;;;;5040985;28;20072;-79
2024/02/24 03:41:57;;;;;;;2.58;0.90;;;;;;;;;;5003123;28;20061;-79
2024/02/24 03:44:24;;;;;;;1.63;0.70;;;;;;;;;;5004983;28;20046;-80
2024/02/24 03:46:51;;;;;;;1.13;1.00;;;;;;;;;;5023614;28;20069;-81
2024/02/24 03:49:19;;;;;;;1.90;0.95;;;;;;;;;;5012615;28;20472;-79
2024/02/24 03:51:46;;;;;;;1.30;1.00;;;;;;;;;;5014988;28;20072;-79
2024/02/24 03:54:13;;;;;;;2.15;1.33;;;;;;;;;;5018143;28;20043;-79
2024/02/24 03:56:40;;;;;;;4.13;0.98;;;;;;;;;;4997947;28;20046;-79
2024/02/24 03:59:07;;;;;;;3.38;0.82;;;;;;;;;;5020875;28;20112;-79
2024/02/24 04:01:34;;;;;;;2.83;0.90;;;;;;;;;;5017129;28;20065;-79
2024/02/24 04:04:00;;;;;;;1.05;0.73;;;;;;;;;;5024042;28;20061;-79
2024/02/24 04:06:27;;;;;;;1.45;0.95;;;;;;;;;;5021291;28;20042;-79
2024/02/24 04:08:54;;;;;;;0.80;0.80;;;;;;;;;;5020586;28;20052;-79
2024/02/24 04:11:21;;;;;;;1.20;0.77;;;;;;;;;;5000945;28;20061;-79
2024/02/24 04:13:47;;;;;;;1.98;1.00;;;;;;;;;;5001578;28;20416;-79
2024/02/24 04:16:14;;;;;;;2.95;0.70;;;;;;;;;;5033877;28;20062;-79
2024/02/24 04:18:41;;;;;;;1.88;0.95;;;;;;;;;;5012545;28;20081;-79
2024/02/24 04:21:07;;;;;;;2.88;0.80;;;;;;;;;;5019953;28;20046;-79
2024/02/24 04:23:34;;;;;;;1.95;1.00;;;;;;;;;;5012463;28;20060;-79
2024/02/24 04:26:01;;;;;;;1.80;1.10;;;;;;;;;;5023254;28;20085;-79
2024/02/24 04:28:27;;;;;;;1.85;0.77;;;;;;;;;;5002609;28;20052;-79
2024/02/24 04:30:54;;;;;;;1.67;0.90;;;;;;;;;;5023051;28;20050;-79
2024/02/24 04:33:21;;;;;;;1.60;1.00;;;;;;;;;;5005474;28;20050;-79
2024/02/24 04:35:47;;;;;;;2.88;1.15;;;;;;;;;;5011850;28;20081;-79
2024/02/24 04:38:14;;;;;;;1.52;0.82;;;;;;;;;;5022548;28;20049;-78
2024/02/24 04:40:41;;;;;;;6.43;1.08;;;;;;;;;;5003501;28;20058;-81
2024/02/24 04:43:07;;;;;;;1.17;0.75;;;;;;;;;;5019827;28;20073;-79
2024/02/24 04:45:35;;;;;;;2.13;1.10;;;;;;;;;;5003523;28;20076;-79
2024/02/24 04:48:02;;;;;;;4.60;1.20;;;;;;;;;;5003096;28;20089;-79
2024/02/24 04:50:29;;;;;;;3.50;1.30;;;;;;;;;;5003980;28;20077;-78
2024/02/24 04:52:56;;;;;;;5.88;1.60;;;;;;;;;;5024492;28;20061;-79
2024/02/24 04:55:22;;;;;;;3.25;0.73;;;;;;;;;;5033224;28;20050;-78
2024/02/24 04:57:49;;;;;;;1.20;0.93;;;;;;;;;;5031396;28;20054;-78
2024/02/24 05:00:16;;;;;;;2.38;0.90;;;;;;;;;;5020007;28;20054;-78
2024/02/24 05:02:42;;;;;;;1.35;0.90;;;;;;;;;;5020236;28;20500;-78
2024/02/24 05:05:11;;;;;;;2.80;1.45;;;;;;;;;;4999095;28;20054;-78
2024/02/24 05:07:39;;;;;;;2.55;0.70;;;;;;;;;;5034798;28;20508;-79
2024/02/24 05:10:06;;;;;;;2.20;1.15;;;;;;;;;;5034011;28;20085;-79
2024/02/24 05:12:34;;;;;;;2.50;1.00;;;;;;;;;;5011334;28;20507;-78
2024/02/24 05:15:00;;;;;;;2.10;0.70;;;;;;;;;;5003278;28;20062;-79
2024/02/24 05:17:27;;;;;;;2.42;1.10;;;;;;;;;;4994122;28;20135;-79
2024/02/24 05:19:54;;;;;;;1.75;1.05;;;;;;;;;;4995167;28;20073;-79
2024/02/24 05:22:20;;;;;;;1.67;1.00;;;;;;;;;;5015707;28;20069;-79
2024/02/24 05:24:47;;;;;;;1.95;0.80;;;;;;;;;;4998308;28;20459;-78
2024/02/24 05:27:14;;;;;;;2.65;0.90;;;;;;;;;;5019226;28;20496;-80
2024/02/24 05:29:44;;;;;;;1.70;0.82;;;;;;;;;;5017435;28;20109;-78
2024/02/24 05:32:14;;;;;;;2.97;0.93;;;;;;;;;;5016464;28;20065;-78
2024/02/24 05:34:40;;;;;;;4.82;0.98;;;;;;;;;;5000669;28;20105;-80
2024/02/24 05:37:07;;;;;;;3.00;0.90;;;;;;;;;;4995453;28;20062;-80
2024/02/24 05:39:34;;;;;;;1.52;0.80;;;;;;;;;;5016309;28;20046;-80
2024/02/24 05:42:00;;;;;;;1.77;0.80;;;;;;;;;;5018016;28;20058;-80
2024/02/24 05:44:27;;;;;;;1.55;0.90;;;;;;;;;;5016968;28;20519;-79
2024/02/24 05:46:53;;;;;;;2.15;1.00;;;;;;;;;;5018432;28;20077;-80
2024/02/24 05:49:20;;;;;;;1.20;0.85;;;;;;;;;;5017272;28;20049;-79
2024/02/24 05:51:48;;;;;;;1.75;1.00;;;;;;;;;;5017418;28;20085;-79
2024/02/24 05:54:14;;;;;;;2.47;1.10;;;;;;;;;;5022153;28;20057;-79
2024/02/24 05:56:41;;;;;;;1.98;1.02;;;;;;;;;;5025619;28;20447;-79
2024/02/24 05:59:08;;;;;;;2.50;1.00;;;;;;;;;;5025658;28;20110;-79
2024/02/24 06:01:34;;;;;;;2.13;0.80;;;;;;;;;;5025906;28;20056;-80
2024/02/24 06:04:01;;;;;;;1.42;0.75;;;;;;;;;;5040939;28;20084;-79
2024/02/24 06:06:28;;;;;;;2.22;0.90;;;;;;;;;;5009134;28;20153;-79
2024/02/24 06:08:54;;;;;;;2.85;1.10;;;;;;;;;;5024900;28;20054;-79
2024/02/24 06:11:21;;;;;;;2.47;1.00;;;;;;;;;;5025902;28;20049;-80
2024/02/24 06:13:52;;;;;;;2.15;1.10;;;;;;;;;;5004421;28;20058;-81
2024/02/24 06:16:19;;;;;;;2.50;1.00;;;;;;;;;;5017257;28;20058;-81
2024/02/24 06:18:45;;;;;;;1.60;0.90;;;;;;;;;;5022186;28;20201;-80
2024/02/24 06:21:12;;;;;;;1.80;0.88;;;;;;;;;;5002449;28;20054;-81
2024/02/24 06:23:39;;;;;;;2.78;1.10;;;;;;;;;;5023056;28;20050;-80
2024/02/24 06:26:05;;;;;;;1.67;1.00;;;;;;;;;;5023458;28;20050;-80
2024/02/24 06:28:32;;;;;;;0.90;0.70;;;;;;;;;;5038754;28;20053;-81
2024/02/24 06:30:59;;;;;;;2.35;1.08;;;;;;;;;;5025601;28;20049;-80
2024/02/24 06:33:25;;;;;;;2.53;1.00;;;;;;;;;;5005014;28;20049;-82
2024/02/24 06:35:52;;;;;;;1.85;0.88;;;;;;;;;;5018481;28;20077;-81
2024/02/24 06:38:19;;;;;;;3.67;1.35;;;;;;;;;;5001511;28;20718;-82
2024/02/24 06:40:46;;;;;;;2.13;0.90;;;;;;;;;;4999543;28;20112;-82
2024/02/24 06:43:12;;;;;;;2.50;1.35;;;;;;;;;;4997615;28;20078;-81
2024/02/24 06:45:39;;;;;;;7.13;2.78;;;;;;;;;;5019906;28;20103;-80
2024/02/24 06:48:06;;;;;;;3.03;2.00;;;;;;;;;;5002710;28;20057;-79
2024/02/24 06:50:33;;;;;;;2.78;1.90;;;;;;;;;;4996976;28;20100;-81
2024/02/24 06:53:00;;;;;;;2.10;1.63;;;;;;;;;;5022530;28;20077;-78
2024/02/24 06:55:27;;;;;;;2.05;1.20;;;;;;;;;;5040854;28;20068;-77
2024/02/24 06:57:53;;;;;;;1.27;0.88;;;;;;;;;;5021586;28;20054;-79
2024/02/24 07:00:21;;;;;;;2.22;1.30;;;;;;;;;;5022861;28;20046;-79
2024/02/24 07:02:49;;;;;;;4.00;1.10;;;;;;;;;;5023461;28;20496;-78
2024/02/24 07:05:15;;;;;;;2.45;1.23;;;;;;;;;;5007929;28;20132;-78
2024/02/24 07:07:42;;;;;;;1.75;1.00;;;;;;;;;;5023744;28;20081;-80
2024/02/24 07:10:09;;;;;;;4.55;1.10;;;;;;;;;;5006011;28;20060;-80
2024/02/24 07:12:36;;;;;;;1.38;0.98;;;;;;;;;;5002968;28;20081;-80
2024/02/24 07:15:07;;;;;;;1.75;0.90;;;;;;;;;;5015284;28;20054;-80
2024/02/24 07:17:34;;;;;;;0.93;0.80;;;;;;;;;;5002641;28;20050;-80
2024/02/24 07:20:01;;;;;;;1.88;1.20;;;;;;;;;;5022468;28;20049;-78
2024/02/24 07:22:27;;;;;;;2.17;1.00;;;;;;;;;;5005358;28;20557;-78
2024/02/24 07:24:54;;;;;;;2.45;1.08;;;;;;;;;;5020406;28;20108;-78
2024/02/24 07:27:21;;;;;;;2.17;1.63;;;;;;;;;;4994255;28;20587;-77
2024/02/24 07:29:47;;;;;;;1.75;1.10;;;;;;;;;;5012413;28;20570;-78
2024/02/24 07:32:14;;;;;;;2.65;1.02;;;;;;;;;;5012807;28;20050;-79
2024/02/24 07:34:41;;;;;;;3.95;1.10;;;;;;;;;;5012537;28;20058;-78
2024/02/24 07:37:08;;;;;;;2.60;0.65;;;;;;;;;;4996684;28;20046;-79
2024/02/24 07:39:36;;;;;;;1.42;0.70;;;;;;;;;;4992683;28;20105;-79
2024/02/24 07:42:02;;;;;;;2.25;1.15;;;;;;;;;;5000494;28;20054;-79
2024/02/24 07:44:29;;;;;;;3.95;1.40;;;;;;;;;;5018662;28;20054;-79
2024/02/24 07:46:56;;;;;;;0.75;0.70;;;;;;;;;;5021127;28;20053;-78
2024/02/24 07:49:23;;;;;;;0.70;0.70;;;;;;;;;;5021161;28;20054;-78
2024/02/24 07:51:51;;;;;;;2.35;1.10;;;;;;;;;;5021589;28;20085;-78
2024/02/24 07:54:17;;;;;;;2.58;1.20;;;;;;;;;;5002776;28;20066;-79
2024/02/24 07:56:44;;;;;;;1.35;1.25;;;;;;;;;;5000071;28;20077;-78
2024/02/24 07:59:11;;;;;;;2.65;2.00;;;;;;;;;;4998082;28;20054;-78
2024/02/24 08:01:38;;;;;;;3.08;2.42;;;;;;;;;;5013573;28;20145;-78
2024/02/24 08:04:04;;;;;;;2.85;1.92;;;;;;;;;;5012096;28;20053;-77
2024/02/24 08:06:31;;;;;;;5.53;3.22;;;;;;;;;;5021489;28;20113;-78
2024/02/24 08:08:59;;;;;;;6.53;2.95;;;;;;;;;;5010757;28;20512;-77
2024/02/24 08:11:29;;;;;;;2.63;2.05;;;;;;;;;;5013198;28;20065;-76
2024/02/24 08:13:56;;;;;;;2.00;1.75;;;;;;;;;;4994732;28;20054;-76
2024/02/24 08:16:23;;;;;;;1.90;1.63;;;;;;;;;;5040142;28;20141;-74
2024/02/24 08:18:50;;;;;;;1.85;1.38;;;;;;;;;;5035453;28;20061;-72
2024/02/24 08:21:17;;;;;;;1.63;1.00;;;;;;;;;;5035120;28;20076;-74
2024/02/24 08:23:43;;;;;;;2.58;1.02;;;;;;;;;;5051851;28;20073;-74
2024/02/24 08:26:10;;;;;;;1.20;0.70;;;;;;;;;;5053484;28;20042;-73
2024/02/24 08:28:37;;;;;;;1.10;0.70;;;;;;;;;;5018435;28;20393;-75
2024/02/24 08:31:04;;;;;;;1.13;0.63;;;;;;;;;;5029620;28;20057;-73
2024/02/24 08:33:31;;;;;;;1.17;0.60;;;;;;;;;;5037306;28;20061;-73
2024/02/24 08:35:57;;;;;;;1.30;1.13;;;;;;;;;;5036492;28;20057;-75
2024/02/24 08:38:27;;;;;;;0.98;0.55;;;;;;;;;;5036297;28;20404;-74
2024/02/24 08:40:54;;;;;;;0.47;0.40;;;;;;;;;;5035994;28;20060;-73
2024/02/24 08:43:21;;;;;;;0.77;0.60;;;;;;;;;;5033913;28;20046;-73
2024/02/24 08:45:48;;;;;;;1.38;0.30;;;;;;;;;;5034240;28;20100;-73
2024/02/24 08:48:14;;;;;;;0.30;0.30;;;;;;;;;;5051320;28;20084;-73
2024/02/24 08:50:41;;;;;;;2.90;0.40;;;;;;;;;;5032879;28;20060;-73
2024/02/24 08:53:08;;;;;;;0.40;0.30;;;;;;;;;;5013050;28;20054;-75
2024/02/24 08:55:34;;;;;;;1.55;0.80;;;;;;;;;;5012404;28;20054;-74
2024/02/24 08:58:01;;;;;;;2.03;0.50;;;;;;;;;;5011816;28;20073;-74
2024/02/24 09:00:28;;;;;;;0.85;0.73;;;;;;;;;;5011995;28;20050;-75
2024/02/24 09:02:54;;;;;;;0.82;0.65;;;;;;;;;;5027653;28;20061;-74
2024/02/24 09:05:21;;;;;;;1.35;0.65;;;;;;;;;;5010910;28;20476;-75
2024/02/24 09:07:48;;;;;;;0.65;0.47;;;;;;;;;;5011408;28;20060;-73
2024/02/24 09:10:15;;;;;;;1.08;0.40;;;;;;;;;;5008950;28;20061;-79
2024/02/24 09:12:42;;;;;;;2.72;1.00;;;;;;;;;;5010412;28;20054;-76
2024/02/24 09:15:08;;;;;;;3.05;1.55;;;;;;;;;;5015628;28;20463;-79
2024/02/24 09:17:35;;;;;;;0.93;0.60;;;;;;;;;;5017566;28;20104;-79
2024/02/24 09:20:02;;;;;;;1.38;0.80;;;;;;;;;;5020753;28;20100;-79
2024/02/24 09:22:29;;;;;;;0.68;0.50;;;;;;;;;;5029517;28;20054;-81
2024/02/24 09:24:56;;;;;;;0.25;0.17;;;;;;;;;;5028361;28;20472;-79
2024/02/24 09:27:22;;;;;;;0.60;0.50;;;;;;;;;;5007895;28;20050;-75
2024/02/24 09:29:49;;;;;;;1.85;0.40;;;;;;;;;;5045730;28;20072;-76
2024/02/24 09:32:17;;;;;;;2.05;0.50;;;;;;;;;;5022815;28;20594;-74
2024/02/24 09:34:44;;;;;;;0.60;0.45;;;;;;;;;;5018790;28;20499;-75
2024/02/24 09:37:11;;;;;;;0.75;0.30;;;;;;;;;;5018742;28;20057;-76
2024/02/24 09:39:42;;;;;;;0.30;0.25;;;;;;;;;;5028612;28;20050;-77
2024/02/24 09:42:09;;;;;;;0.25;0.20;;;;;;;;;;5013673;28;20057;-78
2024/02/24 09:44:40;;;;;;;0.20;0.20;;;;;;;;;;5035383;28;20081;-79
2024/02/24 09:47:07;;;;;;;0.60;0.32;;;;;;;;;;5015260;28;20102;-77
2024/02/24 09:49:33;;;;;;;0.57;0.40;;;;;;;;;;5017318;28;20099;-78
2024/02/24 09:52:00;;;;;;;1.33;0.40;;;;;;;;;;5028547;28;21253;-78
2024/02/24 09:54:27;;;;;;;0.10;0.10;;;;;;;;;;5019460;28;20116;-76
2024/02/24 09:56:57;;;;;;;0.60;0.20;;;;;;;;;;5033617;28;20097;-79
2024/02/24 09:59:24;;;;;;;0.20;0.20;;;;;;;;;;5001877;28;20046;-77
2024/02/24 10:01:53;;;;;;;0.10;0.10;;;;;;;;;;5018749;28;20061;-79
2024/02/24 10:04:20;;;;;;;0.35;0.30;;;;;;;;;;4995858;28;20062;-77
2024/02/24 10:06:47;;;;;;;1.65;0.70;;;;;;;;;;5003282;28;20054;-77
2024/02/24 10:09:15;;;;;;;0.30;0.22;;;;;;;;;;5002440;28;20112;-77
2024/02/24 10:11:41;;;;;;;0.40;0.32;;;;;;;;;;5009520;28;20500;-74
2024/02/24 10:14:08;;;;;;;0.98;0.50;;;;;;;;;;5009085;28;20107;-74
2024/02/24 10:16:39;;;;;;;0.32;0.20;;;;;;;;;;5004011;28;20058;-75
2024/02/24 10:19:06;;;;;;;0.35;0.28;;;;;;;;;;5005331;28;20050;-75
2024/02/24 10:21:33;;;;;;;0.30;0.25;;;;;;;;;;5008712;28;20042;-75
2024/02/24 10:24:00;;;;;;;0.68;0.20;;;;;;;;;;5001351;28;20133;-75
2024/02/24 10:26:27;;;;;;;0.20;0.20;;;;;;;;;;5005863;28;20100;-74
2024/02/24 10:28:54;;;;;;;1.27;0.28;;;;;;;;;;5005924;28;20440;-74
2024/02/24 10:31:21;;;;;;;1.10;0.68;;;;;;;;;;4993084;28;20107;-74
2024/02/24 10:33:48;;;;;;;8.18;3.00;;;;;;;;;;5009739;28;20111;-75
2024/02/24 10:36:15;;;;;;;13.38;5.63;;;;;;;;;;5009619;28;20137;-74
2024/02/24 10:38:41;;;;;;;3.33;1.63;;;;;;;;;;5009169;28;20057;-77
2024/02/24 10:41:19;;;;;;;2.42;0.60;;;;;;;;;;4997577;28;20054;-76
2024/02/24 10:43:51;;;;;;;3.13;1.40;;;;;;;;;;5003882;28;20137;-79
2024/02/24 10:46:21;;;;;;;1.77;0.52;;;;;;;;;;5009463;28;20050;-80
2024/02/24 10:48:48;;;;;;;0.20;0.13;;;;;;;;;;5017808;28;20112;-80
2024/02/24 10:51:15;;;;;;;0.57;0.20;;;;;;;;;;5017395;28;20088;-79
2024/02/24 10:53:43;;;;;;;1.13;0.30;;;;;;;;;;5003842;28;20069;-79
2024/02/24 10:56:10;;;;;;;0.10;0.05;;;;;;;;;;5003954;28;20419;-79
2024/02/24 10:58:37;;;;;;;0.13;0.13;;;;;;;;;;5005349;28;20069;-79
2024/02/24 11:01:04;;;;;;;0.80;0.43;;;;;;;;;;5004417;28;20038;-80
2024/02/24 11:03:31;;;;;;;0.47;0.30;;;;;;;;;;5023283;28;20042;-76
2024/02/24 11:05:58;;;;;;;0.30;0.30;;;;;;;;;;5019676;28;20419;-77
2024/02/24 11:08:38;;;;;;;0.50;0.40;;;;;;;;;;5010063;28;20421;-77
2024/02/24 11:11:09;;;;;;;1.40;0.38;;;;;;;;;;5009861;28;20050;-76
2024/02/24 11:13:36;;;;;;;1.92;0.60;;;;;;;;;;5007682;28;20054;-76
2024/02/24 11:16:07;;;;;;;0.75;0.47;;;;;;;;;;5002960;28;20451;-75
2024/02/24 11:18:59;;;;;;;0.45;0.30;;;;;;;;;;5008663;28;20053;-77
2024/02/24 11:22:05;;;;;;;0.30;0.20;;;;;;;;;;4990116;28;20057;-76
2024/02/24 11:24:55;;;;;;;0.20;0.20;;;;;;;;;;4988909;28;20046;-77
2024/02/24 11:27:30;;;;;;;0.25;0.13;;;;;;;;;;5006310;28;20488;-77
2024/02/24 11:29:57;;;;;;;0.60;0.20;;;;;;;;;;4992407;28;20045;-76
2024/02/24 11:32:24;;;;;;;1.65;0.28;;;;;;;;;;5005140;28;20141;-76
2024/02/24 11:34:51;;;;;;;0.43;0.10;;;;;;;;;;5011754;28;20045;-76
2024/02/24 11:37:18;;;;;;;0.63;0.10;;;;;;;;;;5025964;28;20046;-75
2024/02/24 11:39:45;;;;;;;1.60;0.60;;;;;;;;;;5029636;28;20106;-77
2024/02/24 11:42:12;;;;;;;1.48;0.25;;;;;;;;;;4988683;28;20053;-76
2024/02/24 11:44:42;;;;;;;1.23;0.35;;;;;;;;;;4989504;28;20045;-75
2024/02/24 11:47:09;;;;;;;0.10;0.10;;;;;;;;;;5006625;28;20050;-78
2024/02/24 11:49:42;;;;;;;0.10;0.10;;;;;;;;;;5001154;28;20045;-77
2024/02/24 11:52:09;;;;;;;0.30;0.17;;;;;;;;;;5013463;28;20512;-80
2024/02/24 11:54:37;;;;;;;0.20;0.20;;;;;;;;;;4998441;28;20046;-81
2024/02/24 11:57:04;;;;;;;0.63;0.20;;;;;;;;;;5028468;28;20117;-81
2024/02/24 11:59:31;;;;;;;0.20;0.20;;;;;;;;;;5018812;28;20053;-79
2024/02/24 12:01:58;;;;;;;0.80;0.20;;;;;;;;;;5015403;28;20104;-78
2024/02/24 12:04:26;;;;;;;0.25;0.10;;;;;;;;;;5013307;28;20060;-77
2024/02/24 12:06:54;;;;;;;1.67;0.40;;;;;;;;;;4989602;28;20048;-78
2024/02/24 12:09:21;;;;;;;0.17;0.17;;;;;;;;;;5004724;28;20395;-77
2024/02/24 12:11:49;;;;;;;0.93;0.20;;;;;;;;;;5010734;28;20057;-77
2024/02/24 12:14:19;;;;;;;0.38;0.25;;;;;;;;;;5013219;28;20434;-79
2024/02/24 12:16:46;;;;;;;1.23;0.30;;;;;;;;;;5010588;28;20069;-78
2024/02/24 12:19:13;;;;;;;0.50;0.32;;;;;;;;;;5006694;28;20556;-76
2024/02/24 12:21:41;;;;;;;1.52;0.43;;;;;;;;;;5012118;28;20107;-78
2024/02/24 12:24:09;;;;;;;1.27;0.15;;;;;;;;;;4995066;28;20042;-78
2024/02/24 12:26:36;;;;;;;1.08;0.30;;;;;;;;;;4995314;28;20572;-77
2024/02/24 12:29:05;;;;;;;0.20;0.20;;;;;;;;;;5012668;28;20519;-77
2024/02/24 12:31:31;;;;;;;0.22;0.10;;;;;;;;;;4994332;28;20046;-77
2024/02/24 12:33:58;;;;;;;0.30;0.10;;;;;;;;;;4993686;28;20049;-77
2024/02/24 12:36:25;;;;;;;0.50;0.10;;;;;;;;;;5009946;28;20049;-76
2024/02/24 12:38:51;;;;;;;0.30;0.20;;;;;;;;;;5012085;28;20050;-76
2024/02/24 12:41:18;;;;;;;0.82;0.30;;;;;;;;;;5012136;28;20531;-77
2024/02/24 12:43:45;;;;;;;1.45;0.20;;;;;;;;;;5012474;28;20054;-77
2024/02/24 12:46:11;;;;;;;0.43;0.40;;;;;;;;;;5029684;28;20120;-77
2024/02/24 12:48:38;;;;;;;0.80;0.30;;;;;;;;;;5013914;28;20092;-77
2024/02/24 12:51:10;;;;;;;0.45;0.20;;;;;;;;;;4997785;28;20507;-77
2024/02/24 12:53:36;;;;;;;0.88;0.35;;;;;;;;;;5013267;28;20104;-77
2024/02/24 12:56:03;;;;;;;0.60;0.20;;;;;;;;;;5012962;28;20046;-77
2024/02/24 12:58:30;;;;;;;1.98;0.40;;;;;;;;;;5012903;28;20061;-77
2024/02/24 13:00:57;;;;;;;1.25;0.20;;;;;;;;;;5013643;28;20050;-77
2024/02/24 13:03:24;;;;;;;0.40;0.20;;;;;;;;;;5012584;28;20045;-77
2024/02/24 13:05:51;;;;;;;0.20;0.20;;;;;;;;;;5012245;28;20049;-77
2024/02/24 13:08:17;;;;;;;2.35;0.40;;;;;;;;;;5013105;28;20053;-77
2024/02/24 13:10:44;;;;;;;0.47;0.30;;;;;;;;;;5013585;28;20057;-78
2024/02/24 13:13:11;;;;;;;0.25;0.20;;;;;;;;;;4993640;28;20112;-77
2024/02/24 13:15:38;;;;;;;1.85;0.40;;;;;;;;;;4997423;28;20058;-77
2024/02/24 13:18:05;;;;;;;0.60;0.22;;;;;;;;;;4993560;28;20050;-77
2024/02/24 13:20:32;;;;;;;0.60;0.32;;;;;;;;;;5012701;28;20475;-77
2024/02/24 13:22:59;;;;;;;2.60;0.60;;;;;;;;;;5012931;28;20045;-77
2024/02/24 13:25:26;;;;;;;1.05;0.22;;;;;;;;;;5013042;28;20046;-77
2024/02/24 13:27:53;;;;;;;1.73;0.73;;;;;;;;;;5013129;28;20058;-77
2024/02/24 13:30:20;;;;;;;0.30;0.30;;;;;;;;;;4997892;28;20049;-77
2024/02/24 13:32:48;;;;;;;0.35;0.30;;;;;;;;;;4996578;28;20460;-77
2024/02/24 13:35:15;;;;;;;0.55;0.40;;;;;;;;;;4997942;28;20518;-77
2024/02/24 13:37:43;;;;;;;0.52;0.40;;;;;;;;;;5013194;28;20058;-77
2024/02/24 13:40:10;;;;;;;0.55;0.55;;;;;;;;;;5029753;28;20046;-76
2024/02/24 13:42:36;;;;;;;0.40;0.25;;;;;;;;;;5014261;28;20136;-76
2024/02/24 13:45:05;;;;;;;2.03;0.40;;;;;;;;;;5029673;28;20077;-77
2024/02/24 13:47:33;;;;;;;1.00;0.50;;;;;;;;;;5013492;28;20050;-77
2024/02/24 13:50:00;;;;;;;1.20;0.28;;;;;;;;;;4997050;28;20135;-76
2024/02/24 13:52:27;;;;;;;0.60;0.35;;;;;;;;;;5012711;28;20065;-77
2024/02/24 13:54:53;;;;;;;3.33;0.50;;;;;;;;;;5012058;28;20459;-77
2024/02/24 13:57:20;;;;;;;1.25;0.40;;;;;;;;;;4996367;28;20112;-77
2024/02/24 13:59:47;;;;;;;0.93;0.40;;;;;;;;;;4995083;28;20057;-77
2024/02/24 14:02:13;;;;;;;0.40;0.30;;;;;;;;;;5028217;28;20516;-77
2024/02/24 14:04:40;;;;;;;1.23;0.50;;;;;;;;;;5016109;28;20050;-77
2024/02/24 14:07:07;;;;;;;1.13;0.55;;;;;;;;;;5014947;28;20104;-77
2024/02/24 14:09:34;;;;;;;0.40;0.40;;;;;;;;;;5011589;28;20054;-77
2024/02/24 14:12:01;;;;;;;1.45;0.40;;;;;;;;;;5011897;28;20423;-77
2024/02/24 14:14:28;;;;;;;0.28;0.28;;;;;;;;;;4994936;28;20050;-77
2024/02/24 14:16:55;;;;;;;1.15;0.45;;;;;;;;;;5011763;28;20129;-77
2024/02/24 14:19:21;;;;;;;1.17;0.20;;;;;;;;;;5011154;28;20100;-77
2024/02/24 14:21:49;;;;;;;0.40;0.30;;;;;;;;;;5011578;28;20125;-77
2024/02/24 14:24:16;;;;;;;0.68;0.40;;;;;;;;;;4995506;28;20088;-77
2024/02/24 14:26:45;;;;;;;0.70;0.28;;;;;;;;;;5011467;28;20045;-77
2024/02/24 14:29:12;;;;;;;0.88;0.50;;;;;;;;;;5011925;28;20049;-76
2024/02/24 14:31:39;;;;;;;0.60;0.25;;;;;;;;;;5014242;28;20039;-76
2024/02/24 14:34:05;;;;;;;0.32;0.32;;;;;;;;;;5012389;28;20077;-77
2024/02/24 14:36:32;;;;;;;0.28;0.20;;;;;;;;;;5003838;28;20060;-77
2024/02/24 14:38:59;;;;;;;0.40;0.20;;;;;;;;;;4997823;28;20053;-77
2024/02/24 14:41:27;;;;;;;0.60;0.30;;;;;;;;;;4997705;28;20046;-76
2024/02/24 14:43:54;;;;;;;0.70;0.50;;;;;;;;;;4996686;28;20477;-77